• Join FlightAware (Why Join?)
  • Login
  • US Flag 
08:47AM EDT


 

Airport Tracker/Info


-or-


 

Live Flight TrackerFlight Track Log ✈ SWA3206 ✈ 07-May-2013 ✈ KMDW - KSAN

Flight Track Log - Related Links

Times and Time Zones

All times are in EDT time to prevent confusion due to time zone crossing. See the SWA3206 flight status page for this flight to view local times or setup timezone preferences in your user account.

Time Position Orientation Groundspeed Altitude Reporting Facility
EDT Latitude Longitude Course Direction KTS MPH feet Rate Location/Type
02:05PM 41.8000 -87.7833 251° West 165 190 1,700  Level Chicago TRACON
02:06PM 41.7833 -87.8500 251° West 233 268 3,000 540 Climbing Chicago TRACON
02:08PM 41.7633 -87.9453 254° West 239 275 3,000  Level Chicago Center
02:09PM 41.7617 -88.0294 269° West 233 268 3,000 60 Level Chicago Center
02:10PM 41.7600 -88.1139 269° West 231 266 3,200 1,500 Climbing Chicago Center
02:11PM 41.7836 -88.2028 290° West 248 285 6,100 3,360 Climbing Chicago Center
02:12PM 41.8089 -88.3217 286° West 275 316 10,200 3,420 Climbing Chicago Center
02:13PM 41.7997 -88.4339 264° West 302 348 13,200 2,460 Climbing Chicago Center
02:14PM 41.7786 -88.5503 256° West 323 372 15,400 1,980 Climbing Chicago Center
02:15PM 41.7575 -88.6858 258° West 373 429 17,400 2,460 Climbing Chicago Center
02:16PM 41.7219 -88.8508 254° West 389 448 20,500 2,580 Climbing Chicago Center
02:17PM 41.6908 -88.9939 254° West 402 463 22,800 2,100 Climbing Chicago Center
02:18PM 41.6586 -89.1408 254° West 411 473 24,900 1,980 Climbing Chicago Center
02:19PM 41.6267 -89.2922 254° West 422 486 26,900 1,740 Climbing Chicago Center
02:20PM 41.5953 -89.4442 255° West 427 491 28,500 1,500 Climbing Chicago Center
02:21PM 41.5536 -89.6200 252° West 445 512 30,000 1,620 Climbing Chicago Center
02:22PM 41.5175 -89.7808 253° West 453 521 31,900 1,740 Climbing Chicago Center
02:23PM 41.4836 -89.9356 254° West 441 507 33,700 1,500 Climbing Chicago Center
02:24PM 41.4483 -90.0911 253° West 442 509 35,000 1,080 Climbing Chicago Center
02:25PM 41.4064 -90.2767 253° West 441 507 36,000 900 Climbing Chicago Center
02:26PM 41.3697 -90.4350 253° West 448 516 36,900 840 Climbing Chicago Center
02:27PM 41.3339 -90.5911 253° West 446 513 37,800 480 Climbing Chicago Center
02:28PM 41.2883 -90.7497 249° West 458 527 38,000 60 Climbing Chicago Center
02:29PM 41.2444 -90.8994 249° West 442 509 38,000  Level Chicago Center
02:30PM 41.1903 -91.0817 248° West 442 509 38,000  Level Chicago Center
02:31PM 41.1458 -91.2317 249° West 441 507 38,000  Level Chicago Center
02:32PM 41.1008 -91.3814 248° West 438 504 38,000  Level Chicago Center
02:33PM 41.0564 -91.5297 248° West 437 503 38,000  Level Chicago Center
02:35PM 41.0114 -91.6778 248° West 436 502 38,000  Level Chicago Center
02:36PM 40.9572 -91.8544 248° West 437 503 38,000  Level Chicago Center
02:37PM 40.9122 -91.9981 248° West 430 495 38,000  Level Chicago Center
02:38PM 40.8675 -92.1447 248° West 433 498 38,000  Level Chicago Center
02:39PM 40.8325 -92.2931 253° West 431 496 38,000  Level Chicago Center
02:40PM 40.8122 -92.4469 260° West 431 496 38,000  Level Chicago Center
02:41PM 40.7872 -92.6300 260° West 429 494 38,000  Level Chicago Center
02:42PM 40.7661 -92.7828 260° West 429 494 38,000  Level Chicago Center
02:43PM 40.7492 -92.9039 260° West 429 494 38,000  Level Minneapolis Center
02:44PM 40.7281 -93.0553 260° West 427 491 38,000  Level Minneapolis Center
02:45PM 40.7075 -93.2036 260° West 421 484 38,000  Level Minneapolis Center
02:46PM 40.6861 -93.3525 259° West 420 483 38,000  Level Minneapolis Center
02:47PM 40.6603 -93.5314 259° West 419 482 38,000  Level Minneapolis Center
02:48PM 40.6381 -93.6797 259° West 419 482 38,000  Level Minneapolis Center
02:49PM 40.6164 -93.8292 259° West 420 483 38,000  Level Minneapolis Center
02:50PM 40.5922 -93.9817 258° West 426 490 38,000  Level Minneapolis Center
02:51PM 40.5678 -94.1317 258° West 425 489 38,000  Level Minneapolis Center
02:52PM 40.5367 -94.3114 257° West 425 489 38,000  Level Minneapolis Center
02:53PM 40.5114 -94.4625 258° West 426 490 38,000  Level Minneapolis Center
02:54PM 40.4781 -94.6572 257° West 427 491 38,000  Level Minneapolis Center
02:55PM 40.4511 -94.8094 257° West 426 490 38,000  Level Minneapolis Center
02:56PM 40.4256 -94.9611 258° West 425 489 38,000  Level Minneapolis Center
02:57PM 40.3989 -95.1122 257° West 424 488 38,000  Level Minneapolis Center
02:58PM 40.3717 -95.2653 257° West 427 491 38,000  Level Minneapolis Center
02:59PM 40.3444 -95.4175 257° West 428 493 38,000  Level Minneapolis Center
03:01PM 40.3069 -95.6297 257° West 427 491 38,000  Level Minneapolis Center
03:02PM 40.2794 -95.7803 257° West 425 489 38,000  Level Minneapolis Center
03:03PM 40.2511 -95.9303 256° West 423 487 38,000  Level Minneapolis Center
03:04PM 40.2242 -96.0772 257° West 417 480 38,000  Level Minneapolis Center
03:05PM 40.1961 -96.2269 256° West 421 484 38,000  Level Minneapolis Center
03:06PM 40.1636 -96.3742 254° West 420 483 38,000  Level Minneapolis Center
03:07PM 40.1317 -96.5219 254° West 421 484 38,000  Level Minneapolis Center
03:08PM 40.1003 -96.6717 255° West 425 489 38,000  Level Minneapolis Center
03:09PM 40.0603 -96.8500 254° West 425 489 38,000  Level Minneapolis Center
03:10PM 40.0283 -96.9975 254° West 424 488 38,000  Level Minneapolis Center
03:11PM 39.9944 -97.1469 254° West 426 490 38,000  Level Minneapolis Center
03:12PM 39.9608 -97.2939 253° West 425 489 38,000  Level Minneapolis Center
03:13PM 39.9253 -97.4533 254° West 429 494 38,000  Level Minneapolis Center
03:14PM 39.8919 -97.6014 254° West 427 491 38,000  Level Minneapolis Center
03:15PM 39.8583 -97.7511 254° West 428 493 38,000  Level Minneapolis Center
03:16PM 39.8236 -97.8989 253° West 427 491 38,000  Level Minneapolis Center
03:17PM 39.7900 -98.0461 253° West 425 489 38,000  Level Minneapolis Center
03:18PM 39.7561 -98.1942 253° West 426 490 38,000  Level Minneapolis Center
03:19PM 39.7142 -98.3689 253° West 422 486 38,000  Level Minneapolis Center
03:20PM 39.6803 -98.5142 253° West 422 486 38,000  Level Minneapolis Center
03:21PM 39.6458 -98.6592 253° West 420 483 38,000  Level Minneapolis Center
03:22PM 39.6106 -98.8031 252° West 419 482 38,000  Level Minneapolis Center
03:22PM 39.6044 -98.8319 255° West 416 479 38,000  Level Denver Center
03:24PM 39.5622 -99.0039 252° West 416 479 38,000  Level Denver Center
03:25PM 39.5206 -99.1786 253° West 419 482 38,000  Level Denver Center
03:26PM 39.4844 -99.3211 252° West 417 480 38,000  Level Denver Center
03:27PM 39.4411 -99.5006 253° West 424 488 38,000  Level Denver Center
03:28PM 39.4064 -99.6378 252° West 420 483 38,000  Level Denver Center
03:29PM 39.3667 -99.7992 252° West 420 483 38,000  Level Denver Center
03:30PM 39.3328 -99.9364 252° West 420 483 38,000  Level Denver Center
03:31PM 39.2867 -100.1178 252° West 417 480 38,000  Level Denver Center
03:32PM 39.2533 -100.2517 252° West 409 471 38,000  Level Denver Center
03:33PM 39.2197 -100.4117 255° West 412 474 38,000  Level Denver Center
03:34PM 39.1911 -100.5478 255° West 410 472 38,000  Level Denver Center
03:35PM 39.1572 -100.7044 254° West 408 470 38,000  Level Denver Center
03:36PM 39.1289 -100.8375 255° West 405 466 38,000  Level Denver Center
03:37PM 39.1000 -100.9722 255° West 406 467 38,000  Level Denver Center
03:38PM 39.0658 -101.1294 254° West 410 472 38,000  Level Denver Center
03:40PM 39.0381 -101.2619 255° West 402 463 38,000  Level Denver Center
03:41PM 39.0064 -101.4022 254° West 403 464 38,000  Level Denver Center
03:42PM 38.9725 -101.5531 254° West 397 457 38,000  Level Denver Center
03:43PM 38.9436 -101.6847 254° West 401 461 38,000  Level Denver Center
03:44PM 38.9097 -101.8331 254° West 390 449 38,000  Level Denver Center
03:45PM 38.8814 -101.9608 254° West 389 448 38,000  Level Denver Center
03:46PM 38.8475 -102.1078 254° West 386 444 38,000  Level Denver Center
03:47PM 38.8200 -102.2328 254° West 381 438 38,000  Level Denver Center
03:48PM 38.7906 -102.3569 253° West 381 438 38,000  Level Denver Center
03:49PM 38.7619 -102.4819 254° West 381 438 38,000  Level Denver Center
03:50PM 38.7289 -102.6267 254° West 380 437 38,000  Level Denver Center
03:51PM 38.6914 -102.7928 254° West 384 442 38,000  Level Denver Center
03:52PM 38.6586 -102.9253 252° West 384 442 38,000  Level Denver Center
03:53PM 38.6289 -103.0572 254° West 382 440 38,000  Level Denver Center
03:54PM 38.5972 -103.1886 253° West 382 440 38,000  Level Denver Center
03:55PM 38.5625 -103.3339 253° West 379 436 38,000  Level Denver Center
03:56PM 38.5322 -103.4569 253° West 384 442 38,000  Level Denver Center
03:57PM 38.4964 -103.6031 253° West 387 445 38,000  Level Denver Center
03:58PM 38.4667 -103.7292 253° West 389 448 38,000  Level Denver Center
03:59PM 38.4306 -103.8781 253° West 393 452 38,000  Level Denver Center
04:00PM 38.4039 -103.9836 252° West 391 450 38,000  Level Denver Center
04:01PM 38.3650 -104.1447 253° West 396 456 38,000  Level Denver Center
04:02PM 38.3319 -104.2786 253° West 392 451 38,000  Level Denver Center
04:03PM 38.2944 -104.4247 252° West 388 447 38,000  Level Denver Center
04:04PM 38.2494 -104.5406 244° Southwest 383 441 38,000  Level Denver Center
04:05PM 38.1953 -104.6772 243° Southwest 387 445 38,000  Level Denver Center
04:06PM 38.1494 -104.7933 243° Southwest 387 445 38,000  Level Denver Center
04:07PM 38.1017 -104.9083 242° Southwest 385 443 38,000  Level Denver Center
04:09PM 38.0483 -105.0428 243° Southwest 384 442 38,000  Level Denver Center
04:10PM 38.0014 -105.1581 243° Southwest 383 441 38,000  Level Denver Center
04:11PM 37.9469 -105.2908 243° Southwest 380 437 38,000  Level Denver Center
04:12PM 37.9011 -105.4028 243° Southwest 376 433 38,000  Level Denver Center
04:13PM 37.8464 -105.5331 242° Southwest 376 433 38,000  Level Denver Center
04:14PM 37.8089 -105.6272 243° Southwest 376 433 38,000  Level Denver Center
04:15PM 37.7467 -105.7786 243° Southwest 377 434 38,000  Level Denver Center
04:16PM 37.6972 -105.8922 241° Southwest 385 443 38,000  Level Denver Center
04:17PM 37.6347 -106.0442 243° Southwest 384 442 38,000  Level Denver Center
04:18PM 37.5872 -106.1581 242° Southwest 384 442 38,000  Level Denver Center
04:19PM 37.5375 -106.2761 242° Southwest 385 443 38,000  Level Denver Center
04:20PM 37.4819 -106.4067 242° Southwest 379 436 38,000  Level Denver Center
04:21PM 37.4344 -106.5181 242° Southwest 377 434 38,000  Level Denver Center
04:22PM 37.3797 -106.6494 242° Southwest 381 438 38,000  Level Denver Center
04:23PM 37.3311 -106.7636 242° Southwest 385 443 38,000  Level Denver Center
04:24PM 37.2825 -106.8781 242° Southwest 386 444 38,000  Level Denver Center
04:25PM 37.2256 -107.0103 242° Southwest 386 444 38,000  Level Denver Center
04:26PM 37.1781 -107.1222 242° Southwest 380 437 38,000  Level Denver Center
04:27PM 37.1219 -107.2489 241° Southwest 376 433 38,000  Level Denver Center
04:28PM 37.0742 -107.3581 241° Southwest 374 430 38,000  Level Denver Center
04:29PM 37.0194 -107.4844 242° Southwest 372 428 38,000  Level Denver Center
04:30PM 36.9708 -107.5933 241° Southwest 373 429 38,000  Level Denver Center
04:31PM 36.9317 -107.6850 242° Southwest 373 429 38,000  Level Denver Center
04:32PM 36.8681 -107.8306 241° Southwest 373 429 38,000  Level Denver Center
04:33PM 36.8194 -107.9386 241° Southwest 374 430 38,000  Level Denver Center
04:35PM 36.7636 -108.0647 241° Southwest 373 429 38,000  Level Denver Center
04:36PM 36.7078 -108.1931 242° Southwest 376 433 38,000  Level Denver Center
04:37PM 36.6542 -108.3219 243° Southwest 376 433 38,000  Level Denver Center
04:38PM 36.6150 -108.4133 242° Southwest 375 432 38,000  Level Denver Center
04:39PM 36.5522 -108.5594 242° Southwest 375 432 38,000  Level Denver Center
04:40PM 36.5053 -108.6683 242° Southwest 375 432 38,000  Level Denver Center
04:41PM 36.4506 -108.7950 242° Southwest 375 432 38,000  Level Denver Center
04:42PM 36.4031 -108.9028 241° Southwest 374 430 38,000  Level Denver Center
04:43PM 36.3486 -109.0275 242° Southwest 371 427 38,000  Level Denver Center
04:44PM 36.3019 -109.1344 242° Southwest 372 428 38,000  Level Denver Center
04:45PM 36.2464 -109.2600 241° Southwest 374 430 38,000  Level Denver Center
04:46PM 36.1992 -109.3667 241° Southwest 372 428 38,000  Level Denver Center
04:47PM 36.1522 -109.4744 242° Southwest 372 428 38,000  Level Denver Center
04:48PM 36.0956 -109.6017 241° Southwest 377 434 38,000  Level Denver Center
04:49PM 36.0481 -109.7108 242° Southwest 379 436 38,000  Level Denver Center
04:50PM 35.9911 -109.8361 241° Southwest 375 432 38,000  Level Denver Center
04:51PM 35.9275 -109.9783 241° Southwest 372 428 38,000  Level Denver Center
04:52PM 35.8792 -110.0881 241° Southwest 377 434 38,000  Level Denver Center
04:53PM 35.8425 -110.1586 237° Southwest 378 435 38,000  Level Albuquerque Center
04:54PM 35.7928 -110.2678 241° Southwest 380 437 38,000  Level Albuquerque Center
04:55PM 35.7347 -110.3947 241° Southwest 382 440 38,000  Level Albuquerque Center
04:56PM 35.6836 -110.5050 240° Southwest 386 444 38,000  Level Albuquerque Center
04:57PM 35.6247 -110.6325 240° Southwest 385 443 38,000  Level Albuquerque Center
04:58PM 35.5767 -110.7447 242° Southwest 387 445 38,000  Level Albuquerque Center
04:59PM 35.5250 -110.8528 240° Southwest 385 443 38,000  Level Albuquerque Center
05:00PM 35.4658 -110.9786 240° Southwest 382 440 38,000  Level Albuquerque Center
05:01PM 35.4164 -111.0867 241° Southwest 380 437 38,000  Level Albuquerque Center
05:02PM 35.3606 -111.2131 242° Southwest 378 435 38,000  Level Albuquerque Center
05:03PM 35.3150 -111.3069 239° Southwest 371 427 38,000  Level Albuquerque Center
05:04PM 35.2650 -111.4217 242° Southwest 379 436 38,000  Level Albuquerque Center
05:05PM 35.2019 -111.5569 240° Southwest 381 438 38,000  Level Albuquerque Center
05:06PM 35.1469 -111.6706 239° Southwest 387 445 38,000  Level Albuquerque Center
05:07PM 35.0933 -111.7717 237° Southwest 389 448 38,000  Level Albuquerque Center
05:08PM 35.0206 -111.9050 236° Southwest 393 452 38,000  Level Albuquerque Center
05:09PM 34.9583 -112.0178 236° Southwest 399 459 38,000  Level Albuquerque Center
05:10PM 34.8972 -112.1275 236° Southwest 395 455 38,000  Level Albuquerque Center
05:11PM 34.8375 -112.2358 236° Southwest 390 449 38,000  Level Albuquerque Center
05:12PM 34.7786 -112.3439 236° Southwest 385 443 38,000  Level Albuquerque Center
05:13PM 34.7186 -112.4514 236° Southwest 384 442 38,000  Level Albuquerque Center
05:15PM 34.6792 -112.5711 248° West 385 443 38,000  Level Albuquerque Center
05:16PM 34.6400 -112.7181 252° West 382 440 38,000  Level Albuquerque Center
05:17PM 34.6075 -112.8411 252° West 383 441 38,000  Level Albuquerque Center
05:18PM 34.5742 -112.9647 252° West 384 442 38,000  Level Albuquerque Center
05:19PM 34.5411 -113.0872 252° West 384 442 38,000  Level Albuquerque Center
05:20PM 34.5094 -113.2081 252° West 379 436 38,000  Level Albuquerque Center
05:21PM 34.4767 -113.3286 252° West 378 435 38,000  Level Albuquerque Center
05:22PM 34.4439 -113.4486 252° West 377 434 38,000  Level Albuquerque Center
05:23PM 34.4103 -113.5708 252° West 375 432 38,000  Level Albuquerque Center
05:24PM 34.3694 -113.7194 252° West 377 434 38,000  Level Albuquerque Center
05:25PM 34.3350 -113.8414 251° West 380 437 38,000  Level Albuquerque Center
05:26PM 34.3025 -113.9619 252° West 380 437 38,000  Level Albuquerque Center
05:27PM 34.2692 -114.0836 252° West 381 438 38,000 -540 Level Albuquerque Center
05:28PM 34.2353 -114.2036 251° West 378 435 37,000 -1,020 Descending Albuquerque Center
05:29PM 34.2028 -114.3233 252° West 376 433 36,000 -960 Descending Albuquerque Center
05:30PM 34.1694 -114.4400 251° West 372 428 35,100 -1,020 Descending Albuquerque Center
05:30PM 34.1597 -114.4811 254° West 363 418 34,600 -2,880 Descending Los Angeles Center
05:31PM 34.1194 -114.6181 250° West 362 417 31,000 -2,760 Descending Los Angeles Center
05:32PM 34.0833 -114.7275 248° West 355 409 28,900 -1,500 Descending Los Angeles Center
05:33PM 34.0414 -114.8211 242° Southwest 326 375 28,000 -480 Descending Los Angeles Center
05:34PM 34.0017 -114.9125 242° Southwest 313 360 28,000  Level Los Angeles Center
05:36PM 33.9592 -115.0031 241° Southwest 313 360 28,000  Level Los Angeles Center
05:37PM 33.9197 -115.0958 243° Southwest 312 359 28,000 -180 Level Los Angeles Center
05:38PM 33.8694 -115.2081 242° Southwest 317 365 27,700 -720 Descending Los Angeles Center
05:39PM 33.8200 -115.3172 241° Southwest 312 359 26,500 -1,020 Descending Los Angeles Center
05:40PM 33.7786 -115.4097 242° Southwest 314 361 25,500 -900 Descending Los Angeles Center
05:41PM 33.7467 -115.4819 242° Southwest 309 356 24,700 -780 Descending Los Angeles Center
05:42PM 33.6975 -115.5906 241° Southwest 308 354 24,000 -360 Descending Los Angeles Center
05:43PM 33.6575 -115.6792 242° Southwest 303 349 24,000  Level Los Angeles Center
05:44PM 33.6078 -115.7861 241° Southwest 306 352 24,000  Level Los Angeles Center
05:45PM 33.5575 -115.8703 234° Southwest 311 358 24,000 -60 Level Los Angeles Center
05:46PM 33.5086 -115.9556 236° Southwest 312 359 23,900 -540 Descending Los Angeles Center
05:47PM 33.4397 -116.0264 221° Southwest 325 374 23,000 -900 Descending Los Angeles Center
05:48PM 33.3647 -116.0992 219° Southwest 343 395 22,100 -1,560 Descending Los Angeles Center
05:49PM 33.2894 -116.1711 219° Southwest 348 400 19,800 -2,340 Descending Los Angeles Center
05:50PM 33.2058 -116.2528 219° Southwest 328 377 17,300 -2,220 Descending Los Angeles Center
05:51PM 33.1358 -116.3189 218° Southwest 323 372 15,300 -1,860 Descending Los Angeles Center
05:52PM 33.0692 -116.3844 219° Southwest 317 365 13,500 -1,620 Descending Los Angeles Center
05:53PM 32.9981 -116.4489 217° Southwest 309 356 12,000 -780 Descending Los Angeles Center
05:54PM 32.9261 -116.4889 205° Southwest 286 329 12,000 -360 Level Los Angeles Center
05:55PM 32.8494 -116.5356 207° Southwest 283 326 11,300 -900 Descending Los Angeles Center
05:56PM 32.8169 -116.5889 234° Southwest 260 299 10,200 -1,320 Descending Los Angeles Center
05:57PM 32.7781 -116.6692 240° Southwest 238 274 8,600 -1,380 Descending Los Angeles Center
05:58PM 32.7458 -116.7375 241° Southwest 236 272 7,400 -1,080 Descending Los Angeles Center
05:59PM 32.7206 -116.7903 240° Southwest 234 269 6,500 -1,260 Descending Los Angeles Center
06:00PM 32.6833 -116.8833 245° Southwest 232 267 5,000 -1,260 Descending Southern California TRACON
06:01PM 32.6833 -116.9500 270° West 228 262 4,100 -1,080 Descending Southern California TRACON
06:02PM 32.7000 -117.0167 287° West 225 259 2,900 -900 Descending Southern California TRACON
06:03PM 32.7000 -117.0833 270° West 171 197 2,400 -960 Descending Southern California TRACON
06:04PM 32.7167 -117.1333 292° West 143 165 1,000 -1,020 Descending Southern California TRACON
06:05PM 32.7333 -117.1667 301° West 140 161 400 -660 Descending Southern California TRACON
06:06PM 32.7328 -117.1814 267° West 146 168 200 -840 Descending Los Angeles Center
06:08PM 32.7333 -117.1833 281° West  Level FlightAware Approximate